sensor_id;sensor_type;location;lat;lon;timestamp;temperature;humidity
55313;DHT22;46892;45.668;11.756;2023-10-19T00:00:34;11.20;90.90
55313;DHT22;46892;45.668;11.756;2023-10-19T00:03:02;11.20;90.70
55313;DHT22;46892;45.668;11.756;2023-10-19T00:05:31;11.10;90.70
55313;DHT22;46892;45.668;11.756;2023-10-19T00:07:58;11.10;91.00
55313;DHT22;46892;45.668;11.756;2023-10-19T00:10:25;11.00;91.00
55313;DHT22;46892;45.668;11.756;2023-10-19T00:12:54;11.00;91.10
55313;DHT22;46892;45.668;11.756;2023-10-19T00:15:31;11.00;91.20
55313;DHT22;46892;45.668;11.756;2023-10-19T00:17:58;11.00;91.40
55313;DHT22;46892;45.668;11.756;2023-10-19T00:20:34;11.20;91.90
55313;DHT22;46892;45.668;11.756;2023-10-19T00:23:17;11.20;91.70
55313;DHT22;46892;45.668;11.756;2023-10-19T00:25:50;11.30;91.50
55313;DHT22;46892;45.668;11.756;2023-10-19T00:28:17;11.30;91.20
55313;DHT22;46892;45.668;11.756;2023-10-19T00:30:44;11.20;90.90
55313;DHT22;46892;45.668;11.756;2023-10-19T00:33:11;11.30;90.80
55313;DHT22;46892;45.668;11.756;2023-10-19T00:35:46;11.30;90.80
55313;DHT22;46892;45.668;11.756;2023-10-19T00:38:26;11.30;91.00
55313;DHT22;46892;45.668;11.756;2023-10-19T00:40:53;11.30;91.10
55313;DHT22;46892;45.668;11.756;2023-10-19T00:43:31;11.30;91.40
55313;DHT22;46892;45.668;11.756;2023-10-19T00:46:02;11.30;91.40
55313;DHT22;46892;45.668;11.756;2023-10-19T00:48:32;11.30;91.50
55313;DHT22;46892;45.668;11.756;2023-10-19T00:51:01;11.30;91.40
55313;DHT22;46892;45.668;11.756;2023-10-19T00:53:48;11.30;91.40
55313;DHT22;46892;45.668;11.756;2023-10-19T00:56:15;11.30;91.50
55313;DHT22;46892;45.668;11.756;2023-10-19T00:58:43;11.40;91.60
55313;DHT22;46892;45.668;11.756;2023-10-19T01:01:21;11.40;91.50
55313;DHT22;46892;45.668;11.756;2023-10-19T01:03:49;11.50;91.40
55313;DHT22;46892;45.668;11.756;2023-10-19T01:06:18;11.50;91.00
55313;DHT22;46892;45.668;11.756;2023-10-19T01:08:46;11.50;90.70
55313;DHT22;46892;45.668;11.756;2023-10-19T01:11:13;11.40;90.70
55313;DHT22;46892;45.668;11.756;2023-10-19T01:13:41;11.40;91.30
55313;DHT22;46892;45.668;11.756;2023-10-19T01:16:17;11.50;91.60
55313;DHT22;46892;45.668;11.756;2023-10-19T01:18:50;11.40;91.40
55313;DHT22;46892;45.668;11.756;2023-10-19T01:21:23;11.50;91.60
55313;DHT22;46892;45.668;11.756;2023-10-19T01:24:01;11.50;91.30
55313;DHT22;46892;45.668;11.756;2023-10-19T01:26:26;11.50;90.70
55313;DHT22;46892;45.668;11.756;2023-10-19T01:28:52;11.50;90.60
55313;DHT22;46892;45.668;11.756;2023-10-19T01:31:27;11.50;90.50
55313;DHT22;46892;45.668;11.756;2023-10-19T01:33:57;11.50;90.50
55313;DHT22;46892;45.668;11.756;2023-10-19T01:36:24;11.40;91.00
55313;DHT22;46892;45.668;11.756;2023-10-19T01:38:57;11.40;91.00
55313;DHT22;46892;45.668;11.756;2023-10-19T01:41:27;11.40;90.90
55313;DHT22;46892;45.668;11.756;2023-10-19T01:43:54;11.50;90.80
55313;DHT22;46892;45.668;11.756;2023-10-19T01:46:21;11.40;90.80
55313;DHT22;46892;45.668;11.756;2023-10-19T01:48:48;11.40;91.00
55313;DHT22;46892;45.668;11.756;2023-10-19T01:51:25;11.40;91.10
55313;DHT22;46892;45.668;11.756;2023-10-19T01:53:52;11.40;91.30
55313;DHT22;46892;45.668;11.756;2023-10-19T01:56:18;11.50;91.00
55313;DHT22;46892;45.668;11.756;2023-10-19T01:58:48;11.50;90.90
55313;DHT22;46892;45.668;11.756;2023-10-19T02:01:15;11.40;90.90
55313;DHT22;46892;45.668;11.756;2023-10-19T02:04:00;11.40;91.20
55313;DHT22;46892;45.668;11.756;2023-10-19T02:06:28;11.40;91.30
55313;DHT22;46892;45.668;11.756;2023-10-19T02:09:11;11.30;91.40
55313;DHT22;46892;45.668;11.756;2023-10-19T02:11:54;11.40;91.70
55313;DHT22;46892;45.668;11.756;2023-10-19T02:14:23;11.40;91.80
55313;DHT22;46892;45.668;11.756;2023-10-19T02:16:56;11.40;91.70
55313;DHT22;46892;45.668;11.756;2023-10-19T02:19:24;11.40;91.80
55313;DHT22;46892;45.668;11.756;2023-10-19T02:21:58;11.40;91.90
55313;DHT22;46892;45.668;11.756;2023-10-19T02:24:25;11.50;91.90
55313;DHT22;46892;45.668;11.756;2023-10-19T02:26:55;11.50;91.90
55313;DHT22;46892;45.668;11.756;2023-10-19T02:29:21;11.50;92.10
55313;DHT22;46892;45.668;11.756;2023-10-19T02:31:47;11.60;92.30
55313;DHT22;46892;45.668;11.756;2023-10-19T02:34:14;11.60;92.10
55313;DHT22;46892;45.668;11.756;2023-10-19T02:36:44;11.70;92.00
55313;DHT22;46892;45.668;11.756;2023-10-19T02:39:12;11.70;91.90
55313;DHT22;46892;45.668;11.756;2023-10-19T02:41:43;11.80;91.70
55313;DHT22;46892;45.668;11.756;2023-10-19T02:44:14;11.80;91.70
55313;DHT22;46892;45.668;11.756;2023-10-19T02:46:47;11.90;91.30
55313;DHT22;46892;45.668;11.756;2023-10-19T02:49:14;11.80;90.90
55313;DHT22;46892;45.668;11.756;2023-10-19T02:51:44;11.80;90.40
55313;DHT22;46892;45.668;11.756;2023-10-19T02:54:11;11.80;90.60
55313;DHT22;46892;45.668;11.756;2023-10-19T02:56:54;11.70;90.70
55313;DHT22;46892;45.668;11.756;2023-10-19T02:59:23;11.70;91.00
55313;DHT22;46892;45.668;11.756;2023-10-19T03:01:57;11.70;91.00
55313;DHT22;46892;45.668;11.756;2023-10-19T03:04:28;11.70;91.10
55313;DHT22;46892;45.668;11.756;2023-10-19T03:06:54;11.60;91.20
55313;DHT22;46892;45.668;11.756;2023-10-19T03:09:23;11.60;91.40
55313;DHT22;46892;45.668;11.756;2023-10-19T03:11:56;11.60;91.60
55313;DHT22;46892;45.668;11.756;2023-10-19T03:14:26;11.70;91.80
55313;DHT22;46892;45.668;11.756;2023-10-19T03:16:52;11.70;91.60
55313;DHT22;46892;45.668;11.756;2023-10-19T03:19:21;11.70;91.60
55313;DHT22;46892;45.668;11.756;2023-10-19T03:21:47;11.70;91.70
55313;DHT22;46892;45.668;11.756;2023-10-19T03:24:17;11.60;91.70
55313;DHT22;46892;45.668;11.756;2023-10-19T03:27:03;11.60;91.90
55313;DHT22;46892;45.668;11.756;2023-10-19T03:29:39;11.60;92.10
55313;DHT22;46892;45.668;11.756;2023-10-19T03:32:05;11.60;92.20
55313;DHT22;46892;45.668;11.756;2023-10-19T03:34:32;11.70;92.30
55313;DHT22;46892;45.668;11.756;2023-10-19T03:36:58;11.70;92.10
55313;DHT22;46892;45.668;11.756;2023-10-19T03:39:33;11.70;92.10
55313;DHT22;46892;45.668;11.756;2023-10-19T03:41:59;11.70;92.30
55313;DHT22;46892;45.668;11.756;2023-10-19T03:44:26;11.80;92.30
55313;DHT22;46892;45.668;11.756;2023-10-19T03:46:52;11.80;92.30
55313;DHT22;46892;45.668;11.756;2023-10-19T03:49:30;11.80;92.20
55313;DHT22;46892;45.668;11.756;2023-10-19T03:52:06;11.80;92.40
55313;DHT22;46892;45.668;11.756;2023-10-19T03:54:35;11.80;92.30
55313;DHT22;46892;45.668;11.756;2023-10-19T03:57:11;11.80;92.50
55313;DHT22;46892;45.668;11.756;2023-10-19T03:59:51;11.80;92.50
55313;DHT22;46892;45.668;11.756;2023-10-19T04:02:26;11.80;92.40
55313;DHT22;46892;45.668;11.756;2023-10-19T04:04:55;11.80;92.50
55313;DHT22;46892;45.668;11.756;2023-10-19T04:07:22;11.80;92.50
55313;DHT22;46892;45.668;11.756;2023-10-19T04:09:55;11.80;92.50
55313;DHT22;46892;45.668;11.756;2023-10-19T04:12:34;11.80;92.60
55313;DHT22;46892;45.668;11.756;2023-10-19T04:15:07;11.80;92.60
55313;DHT22;46892;45.668;11.756;2023-10-19T04:17:52;11.80;92.70
55313;DHT22;46892;45.668;11.756;2023-10-19T04:20:20;11.80;92.60
55313;DHT22;46892;45.668;11.756;2023-10-19T04:23:01;11.80;92.60
55313;DHT22;46892;45.668;11.756;2023-10-19T04:25:36;11.80;92.80
55313;DHT22;46892;45.668;11.756;2023-10-19T04:28:02;11.80;92.90
55313;DHT22;46892;45.668;11.756;2023-10-19T04:30:28;11.90;92.80
55313;DHT22;46892;45.668;11.756;2023-10-19T04:32:55;11.90;92.90
55313;DHT22;46892;45.668;11.756;2023-10-19T04:35:23;11.90;92.90
55313;DHT22;46892;45.668;11.756;2023-10-19T04:37:50;12.00;92.60
55313;DHT22;46892;45.668;11.756;2023-10-19T04:40:18;12.00;92.60
55313;DHT22;46892;45.668;11.756;2023-10-19T04:42:44;12.10;92.40
55313;DHT22;46892;45.668;11.756;2023-10-19T04:45:10;12.00;92.40
55313;DHT22;46892;45.668;11.756;2023-10-19T04:47:37;12.10;92.60
55313;DHT22;46892;45.668;11.756;2023-10-19T04:50:03;12.00;92.40
55313;DHT22;46892;45.668;11.756;2023-10-19T04:52:30;12.00;92.60
55313;DHT22;46892;45.668;11.756;2023-10-19T04:54:56;12.00;92.70
55313;DHT22;46892;45.668;11.756;2023-10-19T04:57:22;12.00;92.80
55313;DHT22;46892;45.668;11.756;2023-10-19T04:59:48;12.00;92.90
55313;DHT22;46892;45.668;11.756;2023-10-19T05:02:14;12.10;92.70
55313;DHT22;46892;45.668;11.756;2023-10-19T05:04:39;12.10;92.60
55313;DHT22;46892;45.668;11.756;2023-10-19T05:07:06;12.10;92.70
55313;DHT22;46892;45.668;11.756;2023-10-19T05:09:35;12.10;92.80
55313;DHT22;46892;45.668;11.756;2023-10-19T05:12:04;12.10;92.80
55313;DHT22;46892;45.668;11.756;2023-10-19T05:14:34;12.20;92.80
55313;DHT22;46892;45.668;11.756;2023-10-19T05:17:01;12.10;92.80
55313;DHT22;46892;45.668;11.756;2023-10-19T05:19:30;12.20;92.90
55313;DHT22;46892;45.668;11.756;2023-10-19T05:21:56;12.20;92.80
55313;DHT22;46892;45.668;11.756;2023-10-19T05:24:22;12.20;92.80
55313;DHT22;46892;45.668;11.756;2023-10-19T05:26:48;12.20;92.90
55313;DHT22;46892;45.668;11.756;2023-10-19T05:29:15;12.20;92.80
55313;DHT22;46892;45.668;11.756;2023-10-19T05:31:41;12.20;92.90
55313;DHT22;46892;45.668;11.756;2023-10-19T05:34:06;12.30;92.80
55313;DHT22;46892;45.668;11.756;2023-10-19T05:36:33;12.30;92.70
55313;DHT22;46892;45.668;11.756;2023-10-19T05:38:59;12.20;92.90
55313;DHT22;46892;45.668;11.756;2023-10-19T05:41:25;12.20;92.90
55313;DHT22;46892;45.668;11.756;2023-10-19T05:43:52;12.20;93.10
55313;DHT22;46892;45.668;11.756;2023-10-19T05:46:19;12.30;93.20
55313;DHT22;46892;45.668;11.756;2023-10-19T05:48:48;12.30;93.30
55313;DHT22;46892;45.668;11.756;2023-10-19T05:51:14;12.30;93.10
55313;DHT22;46892;45.668;11.756;2023-10-19T05:53:41;12.40;93.10
55313;DHT22;46892;45.668;11.756;2023-10-19T05:56:07;12.50;93.10
55313;DHT22;46892;45.668;11.756;2023-10-19T05:58:32;12.50;92.80
55313;DHT22;46892;45.668;11.756;2023-10-19T06:00:59;12.50;92.80
55313;DHT22;46892;45.668;11.756;2023-10-19T06:03:24;12.50;92.80
55313;DHT22;46892;45.668;11.756;2023-10-19T06:05:50;12.50;92.80
55313;DHT22;46892;45.668;11.756;2023-10-19T06:08:16;12.50;92.80
55313;DHT22;46892;45.668;11.756;2023-10-19T06:10:41;12.50;92.90
55313;DHT22;46892;45.668;11.756;2023-10-19T06:13:08;12.50;92.80
55313;DHT22;46892;45.668;11.756;2023-10-19T06:15:35;12.50;92.60
55313;DHT22;46892;45.668;11.756;2023-10-19T06:18:01;12.50;92.80
55313;DHT22;46892;45.668;11.756;2023-10-19T06:20:27;12.50;92.80
55313;DHT22;46892;45.668;11.756;2023-10-19T06:22:59;12.50;92.90
55313;DHT22;46892;45.668;11.756;2023-10-19T06:25:32;12.50;92.90
55313;DHT22;46892;45.668;11.756;2023-10-19T06:28:00;12.50;92.80
55313;DHT22;46892;45.668;11.756;2023-10-19T06:30:27;12.50;92.90
55313;DHT22;46892;45.668;11.756;2023-10-19T06:33:00;12.50;92.90
55313;DHT22;46892;45.668;11.756;2023-10-19T06:35:27;12.50;92.80
55313;DHT22;46892;45.668;11.756;2023-10-19T06:37:54;12.50;92.90
55313;DHT22;46892;45.668;11.756;2023-10-19T06:40:23;12.60;92.90
55313;DHT22;46892;45.668;11.756;2023-10-19T06:42:49;12.50;92.90
55313;DHT22;46892;45.668;11.756;2023-10-19T06:45:16;12.50;92.90
55313;DHT22;46892;45.668;11.756;2023-10-19T06:47:48;12.40;93.00
55313;DHT22;46892;45.668;11.756;2023-10-19T06:50:15;12.40;93.20
55313;DHT22;46892;45.668;11.756;2023-10-19T06:52:42;12.50;93.50
55313;DHT22;46892;45.668;11.756;2023-10-19T06:55:12;12.60;93.40
55313;DHT22;46892;45.668;11.756;2023-10-19T06:57:54;12.50;93.30
55313;DHT22;46892;45.668;11.756;2023-10-19T07:00:24;12.50;93.40
55313;DHT22;46892;45.668;11.756;2023-10-19T07:02:56;12.50;93.50
55313;DHT22;46892;45.668;11.756;2023-10-19T07:05:22;12.50;93.50
55313;DHT22;46892;45.668;11.756;2023-10-19T07:07:55;12.60;93.60
55313;DHT22;46892;45.668;11.756;2023-10-19T07:10:23;12.60;93.60
55313;DHT22;46892;45.668;11.756;2023-10-19T07:12:53;12.60;93.60
55313;DHT22;46892;45.668;11.756;2023-10-19T07:15:19;12.60;93.60
55313;DHT22;46892;45.668;11.756;2023-10-19T07:17:49;12.70;93.70
55313;DHT22;46892;45.668;11.756;2023-10-19T07:20:18;12.70;93.70
55313;DHT22;46892;45.668;11.756;2023-10-19T07:23:03;12.70;93.70
55313;DHT22;46892;45.668;11.756;2023-10-19T07:25:46;12.70;93.70
55313;DHT22;46892;45.668;11.756;2023-10-19T07:28:19;12.70;93.80
55313;DHT22;46892;45.668;11.756;2023-10-19T07:30:46;12.70;93.80
55313;DHT22;46892;45.668;11.756;2023-10-19T07:33:12;12.70;93.80
55313;DHT22;46892;45.668;11.756;2023-10-19T07:35:49;12.70;93.90
55313;DHT22;46892;45.668;11.756;2023-10-19T07:38:24;12.70;93.90
55313;DHT22;46892;45.668;11.756;2023-10-19T07:40:51;12.80;94.00
55313;DHT22;46892;45.668;11.756;2023-10-19T07:43:19;12.80;94.00
55313;DHT22;46892;45.668;11.756;2023-10-19T07:45:50;12.90;94.10
55313;DHT22;46892;45.668;11.756;2023-10-19T07:48:17;13.00;94.00
55313;DHT22;46892;45.668;11.756;2023-10-19T07:50:43;13.00;94.00
55313;DHT22;46892;45.668;11.756;2023-10-19T07:53:09;13.00;93.90
55313;DHT22;46892;45.668;11.756;2023-10-19T07:55:36;13.00;93.90
55313;DHT22;46892;45.668;11.756;2023-10-19T07:58:03;13.10;93.80
55313;DHT22;46892;45.668;11.756;2023-10-19T08:00:29;13.10;93.80
55313;DHT22;46892;45.668;11.756;2023-10-19T08:02:55;13.10;93.80
55313;DHT22;46892;45.668;11.756;2023-10-19T08:05:21;13.10;93.80
55313;DHT22;46892;45.668;11.756;2023-10-19T08:07:47;13.10;93.80
55313;DHT22;46892;45.668;11.756;2023-10-19T08:10:15;13.20;93.70
55313;DHT22;46892;45.668;11.756;2023-10-19T08:12:43;13.20;93.70
55313;DHT22;46892;45.668;11.756;2023-10-19T08:15:12;13.30;93.60
55313;DHT22;46892;45.668;11.756;2023-10-19T08:17:40;13.30;93.60
55313;DHT22;46892;45.668;11.756;2023-10-19T08:20:07;13.40;93.70
55313;DHT22;46892;45.668;11.756;2023-10-19T08:22:58;13.50;93.80
55313;DHT22;46892;45.668;11.756;2023-10-19T08:25:25;13.60;93.80
55313;DHT22;46892;45.668;11.756;2023-10-19T08:27:53;13.50;93.50
55313;DHT22;46892;45.668;11.756;2023-10-19T08:30:22;13.50;93.70
55313;DHT22;46892;45.668;11.756;2023-10-19T08:32:49;13.60;93.70
55313;DHT22;46892;45.668;11.756;2023-10-19T08:35:18;13.60;93.80
55313;DHT22;46892;45.668;11.756;2023-10-19T08:37:46;13.60;93.80
55313;DHT22;46892;45.668;11.756;2023-10-19T08:40:13;13.70;93.90
55313;DHT22;46892;45.668;11.756;2023-10-19T08:42:44;13.70;93.70
55313;DHT22;46892;45.668;11.756;2023-10-19T08:45:14;13.70;93.40
55313;DHT22;46892;45.668;11.756;2023-10-19T08:48:02;13.70;93.40
55313;DHT22;46892;45.668;11.756;2023-10-19T08:50:29;13.70;93.50
55313;DHT22;46892;45.668;11.756;2023-10-19T08:52:57;13.80;93.50
55313;DHT22;46892;45.668;11.756;2023-10-19T08:55:23;13.80;93.30
55313;DHT22;46892;45.668;11.756;2023-10-19T08:57:51;13.80;93.10
55313;DHT22;46892;45.668;11.756;2023-10-19T09:00:18;13.80;92.90
55313;DHT22;46892;45.668;11.756;2023-10-19T09:02:47;13.80;92.80
55313;DHT22;46892;45.668;11.756;2023-10-19T09:05:13;13.80;92.90
55313;DHT22;46892;45.668;11.756;2023-10-19T09:07:49;13.90;92.80
55313;DHT22;46892;45.668;11.756;2023-10-19T09:10:28;13.90;92.80
55313;DHT22;46892;45.668;11.756;2023-10-19T09:13:04;14.00;92.80
55313;DHT22;46892;45.668;11.756;2023-10-19T09:15:34;14.00;92.90
55313;DHT22;46892;45.668;11.756;2023-10-19T09:18:19;14.10;93.00
55313;DHT22;46892;45.668;11.756;2023-10-19T09:20:48;14.20;93.00
55313;DHT22;46892;45.668;11.756;2023-10-19T09:23:27;14.30;93.10
55313;DHT22;46892;45.668;11.756;2023-10-19T09:25:57;14.30;93.00
55313;DHT22;46892;45.668;11.756;2023-10-19T09:28:23;14.20;93.00
55313;DHT22;46892;45.668;11.756;2023-10-19T09:30:50;14.30;92.90
55313;DHT22;46892;45.668;11.756;2023-10-19T09:33:17;14.30;92.80
55313;DHT22;46892;45.668;11.756;2023-10-19T09:35:46;14.30;93.00
55313;DHT22;46892;45.668;11.756;2023-10-19T09:38:17;14.60;92.90
55313;DHT22;46892;45.668;11.756;2023-10-19T09:40:51;14.60;92.20
55313;DHT22;46892;45.668;11.756;2023-10-19T09:43:33;14.60;92.30
55313;DHT22;46892;45.668;11.756;2023-10-19T09:46:01;14.70;92.00
55313;DHT22;46892;45.668;11.756;2023-10-19T09:48:28;14.60;92.20
55313;DHT22;46892;45.668;11.756;2023-10-19T09:50:55;14.70;92.40
55313;DHT22;46892;45.668;11.756;2023-10-19T09:53:25;14.60;92.20
55313;DHT22;46892;45.668;11.756;2023-10-19T09:55:57;14.70;92.30
55313;DHT22;46892;45.668;11.756;2023-10-19T09:58:44;14.80;92.30
55313;DHT22;46892;45.668;11.756;2023-10-19T10:01:10;15.00;91.40
55313;DHT22;46892;45.668;11.756;2023-10-19T10:03:50;15.00;90.90
55313;DHT22;46892;45.668;11.756;2023-10-19T10:09:21;15.10;90.90
55313;DHT22;46892;45.668;11.756;2023-10-19T10:11:50;15.10;91.40
55313;DHT22;46892;45.668;11.756;2023-10-19T10:14:27;15.00;91.50
55313;DHT22;46892;45.668;11.756;2023-10-19T10:17:04;15.10;91.60
55313;DHT22;46892;45.668;11.756;2023-10-19T10:19:31;15.10;91.10
55313;DHT22;46892;45.668;11.756;2023-10-19T10:22:10;15.10;91.00
55313;DHT22;46892;45.668;11.756;2023-10-19T10:24:46;15.20;91.30
55313;DHT22;46892;45.668;11.756;2023-10-19T10:27:16;15.20;91.20
55313;DHT22;46892;45.668;11.756;2023-10-19T10:29:58;15.20;91.10
55313;DHT22;46892;45.668;11.756;2023-10-19T10:32:46;15.20;91.60
55313;DHT22;46892;45.668;11.756;2023-10-19T10:38:11;15.30;91.30
55313;DHT22;46892;45.668;11.756;2023-10-19T10:40:47;15.40;91.10
55313;DHT22;46892;45.668;11.756;2023-10-19T10:43:13;15.50;90.50
55313;DHT22;46892;45.668;11.756;2023-10-19T10:45:39;15.50;90.90
55313;DHT22;46892;45.668;11.756;2023-10-19T10:48:15;15.50;91.10
55313;DHT22;46892;45.668;11.756;2023-10-19T10:50:41;15.60;90.80
55313;DHT22;46892;45.668;11.756;2023-10-19T10:53:08;15.70;90.50
55313;DHT22;46892;45.668;11.756;2023-10-19T10:55:37;15.60;90.40
55313;DHT22;46892;45.668;11.756;2023-10-19T10:58:03;15.60;90.10
55313;DHT22;46892;45.668;11.756;2023-10-19T11:00:29;15.60;90.00
55313;DHT22;46892;45.668;11.756;2023-10-19T11:03:06;15.70;90.20
55313;DHT22;46892;45.668;11.756;2023-10-19T11:05:36;15.70;90.00
55313;DHT22;46892;45.668;11.756;2023-10-19T11:08:13;15.80;90.70
55313;DHT22;46892;45.668;11.756;2023-10-19T11:10:43;15.80;90.00
55313;DHT22;46892;45.668;11.756;2023-10-19T11:13:12;15.80;90.10
55313;DHT22;46892;45.668;11.756;2023-10-19T11:15:47;15.80;89.90
55313;DHT22;46892;45.668;11.756;2023-10-19T11:18:48;15.80;89.70
55313;DHT22;46892;45.668;11.756;2023-10-19T11:21:15;15.80;89.60
55313;DHT22;46892;45.668;11.756;2023-10-19T11:23:45;15.70;89.50
55313;DHT22;46892;45.668;11.756;2023-10-19T11:26:13;15.70;89.70
55313;DHT22;46892;45.668;11.756;2023-10-19T11:28:40;15.70;89.90
55313;DHT22;46892;45.668;11.756;2023-10-19T11:31:19;15.70;90.10
55313;DHT22;46892;45.668;11.756;2023-10-19T11:33:48;15.80;90.30
55313;DHT22;46892;45.668;11.756;2023-10-19T11:36:15;15.80;90.40
55313;DHT22;46892;45.668;11.756;2023-10-19T11:38:43;15.80;90.10
55313;DHT22;46892;45.668;11.756;2023-10-19T11:41:10;15.80;90.00
55313;DHT22;46892;45.668;11.756;2023-10-19T11:43:36;15.80;89.90
55313;DHT22;46892;45.668;11.756;2023-10-19T11:46:02;15.80;89.90
55313;DHT22;46892;45.668;11.756;2023-10-19T11:48:32;15.80;90.10
55313;DHT22;46892;45.668;11.756;2023-10-19T11:50:59;15.80;90.00
55313;DHT22;46892;45.668;11.756;2023-10-19T11:53:25;15.80;90.10
55313;DHT22;46892;45.668;11.756;2023-10-19T11:55:51;15.80;90.00
55313;DHT22;46892;45.668;11.756;2023-10-19T11:58:17;15.80;90.00
55313;DHT22;46892;45.668;11.756;2023-10-19T12:00:43;15.80;90.00
55313;DHT22;46892;45.668;11.756;2023-10-19T12:03:09;15.80;90.30
55313;DHT22;46892;45.668;11.756;2023-10-19T12:05:37;15.80;90.30
55313;DHT22;46892;45.668;11.756;2023-10-19T12:08:03;15.90;90.00
55313;DHT22;46892;45.668;11.756;2023-10-19T12:10:29;15.90;90.10
55313;DHT22;46892;45.668;11.756;2023-10-19T12:13:02;15.90;89.80
55313;DHT22;46892;45.668;11.756;2023-10-19T12:15:28;15.90;89.50
55313;DHT22;46892;45.668;11.756;2023-10-19T12:17:54;15.80;89.60
55313;DHT22;46892;45.668;11.756;2023-10-19T12:20:20;15.80;89.90
55313;DHT22;46892;45.668;11.756;2023-10-19T12:22:47;15.90;89.70
55313;DHT22;46892;45.668;11.756;2023-10-19T12:25:14;15.90;89.70
55313;DHT22;46892;45.668;11.756;2023-10-19T12:27:40;15.90;90.00
55313;DHT22;46892;45.668;11.756;2023-10-19T12:30:07;15.90;90.30
55313;DHT22;46892;45.668;11.756;2023-10-19T12:32:44;15.90;90.10
55313;DHT22;46892;45.668;11.756;2023-10-19T12:35:10;15.90;89.80
55313;DHT22;46892;45.668;11.756;2023-10-19T12:37:38;16.00;90.10
55313;DHT22;46892;45.668;11.756;2023-10-19T12:40:12;15.90;89.90
55313;DHT22;46892;45.668;11.756;2023-10-19T12:43:03;15.90;89.80
55313;DHT22;46892;45.668;11.756;2023-10-19T12:45:33;16.00;90.00
55313;DHT22;46892;45.668;11.756;2023-10-19T12:48:05;16.00;90.20
55313;DHT22;46892;45.668;11.756;2023-10-19T12:50:31;16.00;90.20
55313;DHT22;46892;45.668;11.756;2023-10-19T12:52:57;16.10;90.10
55313;DHT22;46892;45.668;11.756;2023-10-19T12:55:23;16.00;90.40
55313;DHT22;46892;45.668;11.756;2023-10-19T12:57:55;16.10;90.50
55313;DHT22;46892;45.668;11.756;2023-10-19T13:00:23;16.10;90.30
55313;DHT22;46892;45.668;11.756;2023-10-19T13:02:50;16.10;90.30
55313;DHT22;46892;45.668;11.756;2023-10-19T13:05:16;16.10;90.20
55313;DHT22;46892;45.668;11.756;2023-10-19T13:07:44;16.00;90.30
55313;DHT22;46892;45.668;11.756;2023-10-19T13:10:10;16.00;90.30
55313;DHT22;46892;45.668;11.756;2023-10-19T13:12:39;16.00;90.20
55313;DHT22;46892;45.668;11.756;2023-10-19T13:15:06;16.00;90.20
55313;DHT22;46892;45.668;11.756;2023-10-19T13:17:41;16.00;90.70
55313;DHT22;46892;45.668;11.756;2023-10-19T13:20:08;16.00;90.90
55313;DHT22;46892;45.668;11.756;2023-10-19T13:22:44;16.00;91.00
55313;DHT22;46892;45.668;11.756;2023-10-19T13:25:12;16.00;91.10
55313;DHT22;46892;45.668;11.756;2023-10-19T13:27:44;16.00;91.20
55313;DHT22;46892;45.668;11.756;2023-10-19T13:30:12;15.90;91.20
55313;DHT22;46892;45.668;11.756;2023-10-19T13:32:40;15.90;91.20
55313;DHT22;46892;45.668;11.756;2023-10-19T13:35:07;15.80;91.00
55313;DHT22;46892;45.668;11.756;2023-10-19T13:37:33;15.80;91.00
55313;DHT22;46892;45.668;11.756;2023-10-19T13:39:59;15.80;91.10
55313;DHT22;46892;45.668;11.756;2023-10-19T13:42:26;15.80;91.20
55313;DHT22;46892;45.668;11.756;2023-10-19T13:44:51;15.80;91.50
55313;DHT22;46892;45.668;11.756;2023-10-19T13:47:17;15.80;91.30
55313;DHT22;46892;45.668;11.756;2023-10-19T13:49:43;15.80;91.60
55313;DHT22;46892;45.668;11.756;2023-10-19T13:52:09;15.80;91.50
55313;DHT22;46892;45.668;11.756;2023-10-19T13:54:35;15.70;91.60
55313;DHT22;46892;45.668;11.756;2023-10-19T13:57:02;15.70;91.80
55313;DHT22;46892;45.668;11.756;2023-10-19T13:59:31;15.70;91.90
55313;DHT22;46892;45.668;11.756;2023-10-19T14:01:59;15.60;92.10
55313;DHT22;46892;45.668;11.756;2023-10-19T14:04:25;15.60;92.10
55313;DHT22;46892;45.668;11.756;2023-10-19T14:06:51;15.60;92.20
55313;DHT22;46892;45.668;11.756;2023-10-19T14:09:18;15.60;92.40
55313;DHT22;46892;45.668;11.756;2023-10-19T14:11:44;15.50;92.50
55313;DHT22;46892;45.668;11.756;2023-10-19T14:14:13;15.50;92.40
55313;DHT22;46892;45.668;11.756;2023-10-19T14:16:38;15.50;92.50
55313;DHT22;46892;45.668;11.756;2023-10-19T14:19:04;15.50;92.60
55313;DHT22;46892;45.668;11.756;2023-10-19T14:21:30;15.50;92.90
55313;DHT22;46892;45.668;11.756;2023-10-19T14:23:57;15.40;93.10
55313;DHT22;46892;45.668;11.756;2023-10-19T14:26:23;15.40;93.20
55313;DHT22;46892;45.668;11.756;2023-10-19T14:28:49;15.40;93.10
55313;DHT22;46892;45.668;11.756;2023-10-19T14:31:15;15.40;93.10
55313;DHT22;46892;45.668;11.756;2023-10-19T14:33:42;15.40;93.20
55313;DHT22;46892;45.668;11.756;2023-10-19T14:36:09;15.40;93.30
55313;DHT22;46892;45.668;11.756;2023-10-19T14:38:35;15.40;93.30
55313;DHT22;46892;45.668;11.756;2023-10-19T14:41:01;15.40;93.30
55313;DHT22;46892;45.668;11.756;2023-10-19T14:43:27;15.40;93.40
55313;DHT22;46892;45.668;11.756;2023-10-19T14:45:55;15.40;93.40
55313;DHT22;46892;45.668;11.756;2023-10-19T14:48:23;15.30;93.40
55313;DHT22;46892;45.668;11.756;2023-10-19T14:50:49;15.30;93.40
55313;DHT22;46892;45.668;11.756;2023-10-19T14:53:17;15.30;93.40
55313;DHT22;46892;45.668;11.756;2023-10-19T14:55:46;15.30;93.40
55313;DHT22;46892;45.668;11.756;2023-10-19T14:58:11;15.30;93.50
55313;DHT22;46892;45.668;11.756;2023-10-19T15:00:37;15.30;93.50
55313;DHT22;46892;45.668;11.756;2023-10-19T15:03:08;15.40;93.40
55313;DHT22;46892;45.668;11.756;2023-10-19T15:05:34;15.30;93.40
55313;DHT22;46892;45.668;11.756;2023-10-19T15:08:04;15.30;93.30
55313;DHT22;46892;45.668;11.756;2023-10-19T15:10:30;15.30;93.00
55313;DHT22;46892;45.668;11.756;2023-10-19T15:12:57;15.30;92.90
55313;DHT22;46892;45.668;11.756;2023-10-19T15:15:25;15.30;92.80
55313;DHT22;46892;45.668;11.756;2023-10-19T15:17:51;15.30;92.60
55313;DHT22;46892;45.668;11.756;2023-10-19T15:20:20;15.20;92.80
55313;DHT22;46892;45.668;11.756;2023-10-19T15:22:46;15.20;92.90
55313;DHT22;46892;45.668;11.756;2023-10-19T15:25:13;15.10;93.10
55313;DHT22;46892;45.668;11.756;2023-10-19T15:27:41;15.10;93.20
55313;DHT22;46892;45.668;11.756;2023-10-19T15:30:09;15.10;93.30
55313;DHT22;46892;45.668;11.756;2023-10-19T15:32:37;15.10;93.50
55313;DHT22;46892;45.668;11.756;2023-10-19T15:35:03;15.10;93.50